• Join FlightAware (Why Join?)
  • Login
  • US Flag 
12:28AM EDT


 

Airport Tracker/Info


-or-


 

Live Flight TrackerFlight Track Log ✈ AWE2174 ✈ 20-Sep-2013 ✈ KDCA - KLGA

Flight Track Log - Related Links

Times and Time Zones

All times are in EDT time to prevent confusion due to time zone crossing. See the AWE2174 flight status page for this flight to view local times or setup timezone preferences in your user account.

Time Position Orientation Groundspeed Altitude Reporting Facility
EDT Latitude Longitude Course Direction KTS MPH feet Rate Location/Type
10:21AM 38.8167 -77.0333 90° East 140 161 1,600  Level Potomac TRACON
10:22AM 38.7667 -77.0333 180° South 201 231 3,700 2,400 Climbing Potomac TRACON
10:23AM 38.7500 -76.9667 108° East 243 280 6,700 1,980 Climbing Potomac TRACON
10:24AM 39.0274 -76.7620 74° East  Level Estimated
10:25AM 39.0712 -76.6928 90° East  Level Estimated
10:25AM 38.8194 -76.8225 58° Northeast 272 313 9,300  Level Washington Center
10:26AM 39.1149 -76.6236 90° East  Level Estimated
10:26AM 38.8600 -76.7328 60° Northeast 277 319 12,300  Level Washington Center
10:27AM 38.9025 -76.6425 59° Northeast 282 325 15,000 2,520 Climbing Washington Center
10:28AM 38.9450 -76.5444 61° Northeast 294 338 17,400 2,220 Climbing Washington Center
10:29AM 38.9936 -76.4436 58° Northeast 306 352 19,500 1,740 Climbing Washington Center
10:30AM 39.0300 -76.3317 67° East 319 367 21,000 720 Climbing Washington Center
10:31AM 39.0347 -76.2089 87° East 331 381 21,000  Level Washington Center
10:32AM 39.0458 -76.0808 84° East 366 421 21,000  Level Washington Center
10:33AM 39.0503 -75.9444 88° East 378 435 21,000  Level Washington Center
10:34AM 39.0569 -75.8056 86° East 383 441 21,000  Level Washington Center
10:35AM 39.1008 -75.6906 64° Northeast 363 418 21,000  Level Washington Center
10:36AM 39.1758 -75.5942 45° Northeast 354 407 21,000  Level Washington Center
10:37AM 39.2508 -75.4978 45° Northeast 365 420 21,000  Level Washington Center
10:38AM 39.3531 -75.4117 33° Northeast 367 422 21,000  Level Washington Center
10:39AM 39.4383 -75.3336 35° Northeast 367 422 21,000 -60 Level Washington Center
10:40AM 39.5233 -75.2581 34° Northeast 367 422 20,900 -600 Descending Washington Center
10:41AM 39.6108 -75.1767 36° Northeast 377 434 19,900 -1,380 Descending Washington Center
10:42AM 39.7083 -75.0844 36° Northeast 388 447 18,300 -1,680 Descending Washington Center
10:43AM 39.7872 -75.0192 32° Northeast 382 440 16,600 -1,980 Descending Washington Center
10:44AM 39.8825 -74.9344 34° Northeast 375 432 14,400 -2,100 Descending Washington Center
10:45AM 39.9667 -74.8167 47° Northeast 363 418 12,000 -1,500 Descending New York TRACON
10:46AM 40.0500 -74.7167 43° Northeast 355 409 11,000 -1,020 Descending New York TRACON
10:47AM 40.1000 -74.6333 52° Northeast 349 402 10,000 -480 Descending New York TRACON
10:48AM 40.1667 -74.5333 49° Northeast 348 400 10,100  Climbing New York TRACON
10:49AM 40.2500 -74.4333 42° Northeast 347 399 10,100  Level New York TRACON
10:50AM 40.3167 -74.3500 44° Northeast 347 399 10,100  Level New York TRACON
10:51AM 40.3833 -74.2667 44° Northeast 342 394 10,100 -480 Level New York TRACON
10:52AM 40.4500 -74.1833 44° Northeast 292 336 9,100 -1,200 Descending New York TRACON
10:53AM 40.5000 -74.1167 45° Northeast 289 333 7,700 -1,560 Descending New York TRACON
10:54AM 40.5667 -74.0667 30° Northeast 279 321 6,200 -1,620 Descending New York TRACON
10:55AM 40.6500 -74.0500 North 270 311 4,400 -1,020 Descending New York TRACON
10:56AM 40.7167 -74.0333 11° North 267 307 4,100 -480 Descending New York TRACON
10:57AM 40.7833 -74.0000 21° North 257 296 3,500 -540 Descending New York TRACON
10:58AM 40.8333 -73.9500 37° Northeast 244 281 3,100 -240 Descending New York TRACON
10:59AM 40.8833 -73.8833 45° Northeast 230 265 3,100 -240 Level New York TRACON
11:00AM 40.9000 -73.8167 72° East 211 243 2,600 -660 Descending New York TRACON
11:01AM 40.8667 -73.8000 159° South 187 215 1,800 -840 Descending New York TRACON
11:02AM 40.8333 -73.8333 217° Southwest 140 161 1,100 -720 Descending New York TRACON
11:03AM 40.8000 -73.8500 201° Southwest 128 147 500 -600 Descending New York TRACON